Time;durP1;ratioP1;P1;durP2;ratioP2;P2;SDS_P1;SDS_P2;PMS_P1;PMS_P2;Temp;Humidity;BMP_temperature;BMP_pressure;BME280_temperature;BME280_humidity;BME280_pressure;Samples;Min_cycle;Max_cycle;Signal;HPM_P1;HPM_P2
2021/10/31 00:01:01;;;;;;;20.60;11.90;;;10.00;99.90;;;;;;5013320;28;20341;-75
2021/10/31 00:03:28;;;;;;;23.00;13.30;;;10.00;99.90;;;;;;5011855;28;20084;-75
2021/10/31 00:05:53;;;;;;;19.58;12.07;;;10.00;99.90;;;;;;5012389;28;20053;-75
2021/10/31 00:08:23;;;;;;;18.33;10.88;;;10.00;99.90;;;;;;5027849;28;20041;-75
2021/10/31 00:10:56;;;;;;;20.58;11.77;;;9.90;99.90;;;;;;5011628;28;20068;-75
2021/10/31 00:13:23;;;;;;;21.05;11.18;;;9.90;99.90;;;;;;5011655;28;20121;-75
2021/10/31 00:15:48;;;;;;;20.33;11.23;;;9.90;99.90;;;;;;5011872;28;20022;-75
2021/10/31 00:18:14;;;;;;;22.08;11.82;;;9.90;99.90;;;;;;5012736;28;20030;-75
2021/10/31 00:20:46;;;;;;;18.17;10.95;;;9.80;99.90;;;;;;5012270;28;20030;-75
2021/10/31 00:23:12;;;;;;;18.95;11.05;;;9.80;99.90;;;;;;5028037;28;20045;-75
2021/10/31 00:25:49;;;;;;;18.15;10.95;;;9.70;99.90;;;;;;5011430;28;20459;-75
2021/10/31 00:28:14;;;;;;;17.95;10.80;;;9.70;99.90;;;;;;5011374;28;20112;-75
2021/10/31 00:30:40;;;;;;;19.33;10.85;;;9.70;99.90;;;;;;5028075;28;20125;-75
2021/10/31 00:33:07;;;;;;;18.90;10.52;;;9.70;99.90;;;;;;5011066;28;20029;-76
2021/10/31 00:35:32;;;;;;;20.50;10.70;;;9.70;99.90;;;;;;5027869;28;20025;-75
2021/10/31 00:37:58;;;;;;;17.52;10.38;;;9.60;99.90;;;;;;5011683;28;20029;-76
2021/10/31 00:40:24;;;;;;;21.73;11.30;;;9.60;99.90;;;;;;5011599;28;20451;-75
2021/10/31 00:42:50;;;;;;;17.85;10.30;;;9.60;99.90;;;;;;5013324;28;20018;-75
2021/10/31 00:45:16;;;;;;;17.60;10.60;;;9.60;99.90;;;;;;5010886;28;20022;-75
2021/10/31 00:47:41;;;;;;;19.02;11.25;;;9.60;99.90;;;;;;5028447;28;20490;-74
2021/10/31 00:50:08;;;;;;;19.52;10.85;;;9.50;99.90;;;;;;5027493;28;20022;-75
2021/10/31 00:52:35;;;;;;;19.60;11.23;;;9.50;99.90;;;;;;5011821;28;20482;-75
2021/10/31 00:55:01;;;;;;;18.15;10.75;;;9.50;99.90;;;;;;5010974;28;20033;-75
2021/10/31 00:57:26;;;;;;;21.23;11.27;;;9.50;99.90;;;;;;5011060;28;20367;-75
2021/10/31 00:59:53;;;;;;;17.73;11.00;;;9.50;99.90;;;;;;5011248;28;20025;-76
2021/10/31 01:02:18;;;;;;;19.63;11.00;;;9.50;99.90;;;;;;5011679;28;20080;-75
2021/10/31 01:04:49;;;;;;;23.48;11.63;;;9.50;99.90;;;;;;5012886;28;20026;-74
2021/10/31 01:07:24;;;;;;;17.63;10.65;;;9.50;99.90;;;;;;5010491;28;20022;-75
2021/10/31 01:09:58;;;;;;;15.77;10.05;;;9.50;99.90;;;;;;5011989;28;20057;-75
2021/10/31 01:12:33;;;;;;;16.33;10.00;;;9.50;99.90;;;;;;5027200;28;20026;-75
2021/10/31 01:15:09;;;;;;;17.05;10.27;;;9.50;99.90;;;;;;5011381;28;20018;-75
2021/10/31 01:18:23;;;;;;;15.80;10.05;;;9.40;99.90;;;;;;5012277;28;20042;-75
2021/10/31 01:20:54;;;;;;;14.52;9.80;;;9.40;99.90;;;;;;4992996;28;20042;-75
2021/10/31 01:23:56;;;;;;;20.20;10.43;;;9.40;99.90;;;;;;5010356;28;20041;-75
2021/10/31 01:27:01;;;;;;;16.77;10.10;;;9.40;99.90;;;;;;5011589;28;20025;-75
2021/10/31 01:29:48;;;;;;;18.48;10.57;;;9.30;99.90;;;;;;5010796;28;20077;-75
2021/10/31 01:32:36;;;;;;;18.80;10.05;;;9.30;99.90;;;;;;5010625;28;20101;-75
2021/10/31 01:35:13;;;;;;;18.73;9.98;;;9.30;99.90;;;;;;5027180;28;20026;-77
2021/10/31 01:38:12;;;;;;;17.58;10.50;;;9.30;99.90;;;;;;5010978;28;20377;-75
2021/10/31 01:41:09;;;;;;;15.27;9.73;;;9.20;99.90;;;;;;5010863;28;20029;-75
2021/10/31 01:43:45;;;;;;;18.05;9.73;;;9.20;99.90;;;;;;5012064;28;20101;-75
2021/10/31 01:46:22;;;;;;;16.80;10.10;;;9.20;99.90;;;;;;5010251;28;20375;-75
2021/10/31 01:48:57;;;;;;;14.35;9.18;;;9.20;99.90;;;;;;5011870;28;20053;-75
2021/10/31 01:51:31;;;;;;;16.10;10.05;;;9.20;99.90;;;;;;5009689;28;20491;-75
2021/10/31 01:54:01;;;;;;;19.92;11.05;;;9.20;99.90;;;;;;5012189;28;20026;-75
2021/10/31 01:56:30;;;;;;;15.20;9.70;;;9.20;99.90;;;;;;5026027;28;20120;-75
2021/10/31 01:59:01;;;;;;;18.08;10.18;;;9.20;99.90;;;;;;5012400;28;20054;-75
2021/10/31 02:01:29;;;;;;;15.68;9.52;;;9.20;99.90;;;;;;5014949;28;20026;-76
2021/10/31 02:03:57;;;;;;;19.42;9.98;;;9.20;99.90;;;;;;5015961;28;20084;-77
2021/10/31 02:06:24;;;;;;;15.38;9.32;;;9.20;99.90;;;;;;5012311;28;20140;-75
2021/10/31 02:08:51;;;;;;;18.83;9.73;;;9.20;99.90;;;;;;5014499;28;20367;-75
2021/10/31 02:11:20;;;;;;;16.92;9.38;;;9.20;99.90;;;;;;5014484;28;20573;-75
2021/10/31 02:13:49;;;;;;;16.65;9.15;;;9.20;99.90;;;;;;5015566;28;20022;-75
2021/10/31 02:16:16;;;;;;;15.90;8.90;;;9.20;99.90;;;;;;5014047;28;20117;-75
2021/10/31 02:18:43;;;;;;;13.13;8.30;;;9.30;99.90;;;;;;5014247;28;20026;-75
2021/10/31 02:21:10;;;;;;;17.48;8.80;;;9.30;99.90;;;;;;5015294;28;20475;-75
2021/10/31 02:23:36;;;;;;;13.93;8.50;;;9.30;99.90;;;;;;5015576;28;20459;-74
2021/10/31 02:26:02;;;;;;;17.00;8.10;;;9.30;99.90;;;;;;5015470;28;20493;-75
2021/10/31 02:28:28;;;;;;;14.95;8.60;;;9.20;99.90;;;;;;5014177;28;20026;-76
2021/10/31 02:30:54;;;;;;;14.77;8.68;;;9.20;99.90;;;;;;5014468;28;20029;-75
2021/10/31 02:33:20;;;;;;;19.42;9.43;;;9.20;99.90;;;;;;5013924;28;20348;-75
2021/10/31 02:35:45;;;;;;;13.07;8.43;;;9.20;99.90;;;;;;5014441;28;20033;-75
2021/10/31 02:38:11;;;;;;;17.35;9.05;;;9.20;99.90;;;;;;5013202;28;20029;-75
2021/10/31 02:40:37;;;;;;;19.10;9.13;;;9.10;99.90;;;;;;5014250;28;20033;-76
2021/10/31 02:43:06;;;;;;;16.17;8.93;;;9.10;99.90;;;;;;5014160;28;20022;-75
2021/10/31 02:45:31;;;;;;;17.98;9.27;;;9.10;99.90;;;;;;5014016;28;20036;-75
2021/10/31 02:48:14;;;;;;;16.15;9.05;;;9.00;99.90;;;;;;5015536;28;20447;-76
2021/10/31 02:50:44;;;;;;;15.48;8.63;;;9.00;99.90;;;;;;5013675;28;20056;-76
2021/10/31 02:53:17;;;;;;;17.25;9.30;;;9.00;99.90;;;;;;5014041;28;20030;-75
2021/10/31 02:55:46;;;;;;;15.40;9.27;;;9.10;99.90;;;;;;4999176;28;20022;-75
2021/10/31 02:58:39;;;;;;;13.75;8.20;;;9.00;99.90;;;;;;5012433;28;20060;-76
2021/10/31 03:01:07;;;;;;;12.50;8.23;;;9.00;99.90;;;;;;5012926;28;20025;-76
2021/10/31 03:03:34;;;;;;;14.05;8.88;;;9.00;99.90;;;;;;5013432;28;20112;-76
2021/10/31 03:06:01;;;;;;;13.45;8.52;;;9.00;99.90;;;;;;5013205;28;20026;-76
2021/10/31 03:08:28;;;;;;;14.73;8.05;;;9.00;99.90;;;;;;5013835;28;20037;-76
2021/10/31 03:10:56;;;;;;;12.77;8.27;;;9.10;99.90;;;;;;5013802;28;20064;-75
2021/10/31 03:13:24;;;;;;;14.40;8.88;;;9.00;99.90;;;;;;5012638;28;20034;-76
2021/10/31 03:15:50;;;;;;;15.30;8.93;;;9.00;99.90;;;;;;5013007;28;20096;-75
2021/10/31 03:18:16;;;;;;;14.13;8.63;;;9.00;99.90;;;;;;5012582;28;20371;-76
2021/10/31 03:20:42;;;;;;;15.52;8.93;;;9.10;99.90;;;;;;5014844;28;20037;-75
2021/10/31 03:23:08;;;;;;;16.17;7.78;;;9.00;99.90;;;;;;5013292;28;20368;-75
2021/10/31 03:25:34;;;;;;;13.18;8.20;;;9.10;99.90;;;;;;5013779;28;20030;-77
2021/10/31 03:27:59;;;;;;;16.23;8.70;;;9.10;99.90;;;;;;5013968;28;20395;-76
2021/10/31 03:30:25;;;;;;;16.38;8.43;;;9.10;99.90;;;;;;5012093;28;20030;-77
2021/10/31 03:32:50;;;;;;;17.08;9.23;;;9.10;99.90;;;;;;5013064;28;20037;-76
2021/10/31 03:35:16;;;;;;;15.20;9.00;;;9.20;99.90;;;;;;5013612;28;20029;-76
2021/10/31 03:37:42;;;;;;;13.15;8.20;;;9.20;99.90;;;;;;5013434;28;20018;-77
2021/10/31 03:40:09;;;;;;;17.02;8.50;;;9.20;99.90;;;;;;5012721;28;20112;-77
2021/10/31 03:42:37;;;;;;;12.88;7.90;;;9.20;99.90;;;;;;5014713;28;20053;-77
2021/10/31 03:45:06;;;;;;;13.40;8.18;;;9.20;99.90;;;;;;5013632;28;20033;-78
2021/10/31 03:47:34;;;;;;;14.05;8.80;;;9.20;99.90;;;;;;5013640;28;20459;-77
2021/10/31 03:49:59;;;;;;;15.25;8.52;;;9.30;99.90;;;;;;5013598;28;20501;-77
2021/10/31 03:52:25;;;;;;;14.57;8.07;;;9.30;99.90;;;;;;5012780;28;20025;-76
2021/10/31 03:54:50;;;;;;;13.98;8.02;;;9.40;99.90;;;;;;5013079;28;20022;-77
2021/10/31 03:57:17;;;;;;;14.40;8.20;;;9.40;99.90;;;;;;5012829;28;20026;-77
2021/10/31 03:59:42;;;;;;;12.88;8.55;;;9.40;99.90;;;;;;5012140;28;20049;-77
2021/10/31 04:02:08;;;;;;;12.73;8.07;;;9.30;99.90;;;;;;5012083;28;20077;-75
2021/10/31 04:04:34;;;;;;;15.75;8.20;;;9.20;99.90;;;;;;5014062;28;20089;-75
2021/10/31 04:07:00;;;;;;;15.93;8.38;;;9.30;99.90;;;;;;5013656;28;20021;-75
2021/10/31 04:09:25;;;;;;;13.20;8.18;;;9.20;99.90;;;;;;5012337;28;20406;-76
2021/10/31 04:11:51;;;;;;;14.07;7.72;;;9.20;99.90;;;;;;5013378;28;20398;-75
2021/10/31 04:14:17;;;;;;;13.27;7.82;;;9.30;99.90;;;;;;5012831;28;20079;-75
2021/10/31 04:16:42;;;;;;;12.02;7.55;;;9.30;99.90;;;;;;5013523;28;20087;-75
2021/10/31 04:19:08;;;;;;;13.63;7.25;;;9.30;99.90;;;;;;5012709;28;20371;-75
2021/10/31 04:21:33;;;;;;;11.77;7.40;;;9.30;99.90;;;;;;5011532;28;20421;-76
2021/10/31 04:23:59;;;;;;;12.80;7.80;;;9.30;99.90;;;;;;5013575;28;20045;-75
2021/10/31 04:26:25;;;;;;;13.15;8.05;;;9.40;99.90;;;;;;5011135;28;20073;-75
2021/10/31 04:28:50;;;;;;;13.35;8.60;;;9.40;99.90;;;;;;5010237;28;20029;-77
2021/10/31 04:31:16;;;;;;;13.70;8.93;;;9.40;99.90;;;;;;5012715;28;20037;-77
2021/10/31 04:33:42;;;;;;;13.38;7.93;;;9.40;99.90;;;;;;5011690;28;20026;-76
2021/10/31 04:36:08;;;;;;;19.20;8.13;;;9.40;99.90;;;;;;5012161;28;20029;-77
2021/10/31 04:38:34;;;;;;;15.85;8.75;;;9.40;99.90;;;;;;5012647;28;20018;-77
2021/10/31 04:41:00;;;;;;;16.08;8.52;;;9.40;99.90;;;;;;5012554;28;20037;-76
2021/10/31 04:43:26;;;;;;;13.75;8.32;;;9.40;99.90;;;;;;5011265;28;20514;-77
2021/10/31 04:45:54;;;;;;;13.32;8.48;;;9.40;99.90;;;;;;5012207;28;20018;-76
2021/10/31 04:48:21;;;;;;;16.02;8.52;;;9.40;99.90;;;;;;5012749;28;20028;-75
2021/10/31 04:50:47;;;;;;;13.70;8.10;;;9.40;99.90;;;;;;5011663;28;20351;-76
2021/10/31 04:53:13;;;;;;;12.20;7.75;;;9.50;99.90;;;;;;5012204;28;20145;-76
2021/10/31 04:55:41;;;;;;;14.60;8.48;;;9.50;99.90;;;;;;4994921;28;20026;-75
2021/10/31 04:58:07;;;;;;;15.43;8.68;;;9.50;99.90;;;;;;5010111;28;20042;-75
2021/10/31 05:00:34;;;;;;;16.50;8.77;;;9.60;99.90;;;;;;5012059;28;20025;-75
2021/10/31 05:03:00;;;;;;;15.55;8.63;;;9.50;99.90;;;;;;5012323;28;20029;-75
2021/10/31 05:05:26;;;;;;;13.82;8.75;;;9.50;99.90;;;;;;5010969;28;20033;-75
2021/10/31 05:07:55;;;;;;;15.50;8.40;;;9.60;99.90;;;;;;5011459;28;20021;-75
2021/10/31 05:10:22;;;;;;;14.93;8.32;;;9.60;99.90;;;;;;5010250;28;20538;-75
2021/10/31 05:12:48;;;;;;;14.93;8.32;;;9.50;99.90;;;;;;5012525;28;20030;-76
2021/10/31 05:15:14;;;;;;;13.63;7.75;;;9.50;99.90;;;;;;5012260;28;20068;-76
2021/10/31 05:17:41;;;;;;;12.95;8.60;;;9.60;99.90;;;;;;5010883;28;20072;-76
2021/10/31 05:20:08;;;;;;;13.27;8.02;;;9.60;99.90;;;;;;5011635;28;20018;-76
2021/10/31 05:22:34;;;;;;;13.00;8.10;;;9.60;99.90;;;;;;5012192;28;20026;-76
2021/10/31 05:25:00;;;;;;;12.27;8.52;;;9.60;99.90;;;;;;5012434;28;20026;-76
2021/10/31 05:27:25;;;;;;;14.93;8.25;;;9.60;99.90;;;;;;5010150;28;20084;-76
2021/10/31 05:29:51;;;;;;;13.50;8.15;;;9.60;99.90;;;;;;5010721;28;20456;-76
2021/10/31 05:32:17;;;;;;;14.90;8.43;;;9.60;99.90;;;;;;5010712;28;20060;-76
2021/10/31 05:34:42;;;;;;;12.13;8.25;;;9.60;99.90;;;;;;5012692;28;20517;-76
2021/10/31 05:37:09;;;;;;;13.20;8.50;;;9.60;99.90;;;;;;5011376;28;20030;-79
2021/10/31 05:39:35;;;;;;;12.98;7.93;;;9.60;99.90;;;;;;5012620;28;20026;-75
2021/10/31 05:42:00;;;;;;;12.57;7.97;;;9.60;99.90;;;;;;5011415;28;20109;-75
2021/10/31 05:44:26;;;;;;;13.73;8.07;;;9.60;99.90;;;;;;5012268;28;20026;-76
2021/10/31 05:46:52;;;;;;;11.93;7.95;;;9.60;99.90;;;;;;5011092;28;20036;-76
2021/10/31 05:49:17;;;;;;;14.73;8.32;;;9.60;99.90;;;;;;5011025;28;20045;-76
2021/10/31 05:51:43;;;;;;;12.23;7.70;;;9.70;99.90;;;;;;5011671;28;20052;-77
2021/10/31 05:54:09;;;;;;;13.75;8.57;;;9.70;99.90;;;;;;5010743;28;20374;-75
2021/10/31 05:56:35;;;;;;;13.93;8.80;;;9.70;99.90;;;;;;5010740;28;20022;-77
2021/10/31 05:59:01;;;;;;;15.07;8.38;;;9.70;99.90;;;;;;5010072;28;20061;-77
2021/10/31 06:01:26;;;;;;;15.43;8.70;;;9.70;99.90;;;;;;5010069;28;20254;-76
2021/10/31 06:03:52;;;;;;;13.77;7.85;;;9.80;99.90;;;;;;5011417;28;20034;-76
2021/10/31 06:06:22;;;;;;;14.20;8.52;;;9.80;99.90;;;;;;5010348;28;20118;-76
2021/10/31 06:08:49;;;;;;;13.60;8.35;;;9.80;99.90;;;;;;5011189;28;20029;-75
2021/10/31 06:11:15;;;;;;;12.60;8.65;;;9.80;99.90;;;;;;5011655;28;20082;-76
2021/10/31 06:13:40;;;;;;;13.60;8.40;;;9.80;99.90;;;;;;5010961;28;20026;-76
2021/10/31 06:16:07;;;;;;;12.57;7.82;;;9.90;99.90;;;;;;5010895;28;20105;-75
2021/10/31 06:18:34;;;;;;;14.70;8.50;;;9.80;99.90;;;;;;5010411;28;20080;-76
2021/10/31 06:21:00;;;;;;;14.35;8.32;;;9.80;99.90;;;;;;5010673;28;20030;-76
2021/10/31 06:23:26;;;;;;;13.18;8.45;;;9.80;99.90;;;;;;5010628;28;20026;-77
2021/10/31 06:25:52;;;;;;;14.70;8.05;;;9.80;99.90;;;;;;5010686;28;20080;-77
2021/10/31 06:28:17;;;;;;;13.77;8.25;;;9.80;99.90;;;;;;5010014;28;20037;-77
2021/10/31 06:30:43;;;;;;;15.38;8.18;;;9.80;99.90;;;;;;5010729;28;20025;-77
2021/10/31 06:33:09;;;;;;;19.58;9.43;;;9.80;99.90;;;;;;5010249;28;20096;-77
2021/10/31 06:35:34;;;;;;;21.27;9.75;;;9.80;99.90;;;;;;5010268;28;20374;-76
2021/10/31 06:38:01;;;;;;;17.92;10.40;;;9.80;99.90;;;;;;5010916;28;20033;-75
2021/10/31 06:40:27;;;;;;;16.20;9.82;;;9.80;99.90;;;;;;5009768;28;20029;-75
2021/10/31 06:42:53;;;;;;;15.82;9.50;;;9.70;99.90;;;;;;5010342;28;20033;-74
2021/10/31 06:45:19;;;;;;;13.10;8.27;;;9.70;99.90;;;;;;5014251;28;20531;-76
2021/10/31 06:47:45;;;;;;;15.38;8.88;;;9.70;99.90;;;;;;5014143;28;20070;-75
2021/10/31 06:50:10;;;;;;;12.52;8.27;;;9.70;99.90;;;;;;5014893;28;20109;-77
2021/10/31 06:52:36;;;;;;;12.75;7.07;;;9.60;99.90;;;;;;5013880;28;20084;-76
2021/10/31 06:55:03;;;;;;;14.63;7.55;;;9.60;99.90;;;;;;5015027;28;20391;-75
2021/10/31 06:57:32;;;;;;;12.60;7.60;;;9.60;99.90;;;;;;5013991;28;20037;-76
2021/10/31 06:59:58;;;;;;;11.35;7.10;;;9.60;99.90;;;;;;5013722;28;20390;-75
2021/10/31 07:02:23;;;;;;;12.75;7.03;;;9.60;99.90;;;;;;5014527;28;20025;-76
2021/10/31 07:04:49;;;;;;;12.48;7.13;;;9.60;99.90;;;;;;5013521;28;20026;-76
2021/10/31 07:07:16;;;;;;;11.40;7.03;;;9.60;99.90;;;;;;5012964;28;20026;-77
2021/10/31 07:09:42;;;;;;;11.68;7.00;;;9.70;99.90;;;;;;5013966;28;20092;-76
2021/10/31 07:12:08;;;;;;;10.95;6.75;;;9.60;99.90;;;;;;5013529;28;20022;-76
2021/10/31 07:14:34;;;;;;;11.85;7.05;;;9.70;99.90;;;;;;5013146;28;20428;-76
2021/10/31 07:17:00;;;;;;;11.50;6.82;;;9.70;99.90;;;;;;5014782;28;20026;-76
2021/10/31 07:19:25;;;;;;;13.55;7.30;;;9.70;99.90;;;;;;5014642;28;20455;-76
2021/10/31 07:21:51;;;;;;;11.10;6.95;;;9.70;99.90;;;;;;5010138;28;20053;-76
2021/10/31 07:24:17;;;;;;;10.32;6.70;;;9.70;99.90;;;;;;5012797;28;20069;-76
2021/10/31 07:26:43;;;;;;;11.95;6.45;;;9.70;99.90;;;;;;5012784;28;20030;-76
2021/10/31 07:29:09;;;;;;;10.10;6.35;;;9.70;99.90;;;;;;5010519;28;20025;-75
2021/10/31 07:31:37;;;;;;;12.85;6.78;;;9.80;99.90;;;;;;5011379;28;20048;-76
2021/10/31 07:34:08;;;;;;;12.85;7.32;;;9.80;99.90;;;;;;5011971;28;20032;-76
2021/10/31 07:36:35;;;;;;;12.48;7.38;;;9.80;99.90;;;;;;5009465;28;20422;-76
2021/10/31 07:39:01;;;;;;;12.38;7.07;;;9.90;99.90;;;;;;5011111;28;20025;-76
2021/10/31 07:41:27;;;;;;;12.25;7.15;;;9.90;99.90;;;;;;5009109;28;20526;-75
2021/10/31 07:43:53;;;;;;;10.52;6.85;;;10.00;99.90;;;;;;5010190;28;20037;-77
2021/10/31 07:46:20;;;;;;;12.30;6.93;;;10.10;99.90;;;;;;5010601;28;20457;-77
2021/10/31 07:48:46;;;;;;;8.68;6.25;;;10.00;99.90;;;;;;5013107;28;20026;-76
2021/10/31 07:51:12;;;;;;;10.82;6.47;;;10.00;99.90;;;;;;5012753;28;20026;-76
2021/10/31 07:53:41;;;;;;;12.13;6.93;;;10.00;99.90;;;;;;5011294;28;20040;-76
2021/10/31 07:56:09;;;;;;;10.82;5.93;;;10.00;99.90;;;;;;5012406;28;20171;-75
2021/10/31 07:58:36;;;;;;;11.55;6.10;;;10.10;99.90;;;;;;5010509;28;20534;-76
2021/10/31 08:01:02;;;;;;;10.93;6.40;;;10.10;99.90;;;;;;5011864;28;20502;-76
2021/10/31 08:03:28;;;;;;;10.82;6.45;;;10.10;99.90;;;;;;5012010;28;20109;-74
2021/10/31 08:05:53;;;;;;;10.23;5.63;;;10.10;99.90;;;;;;5011405;28;20450;-75
2021/10/31 08:08:22;;;;;;;11.55;5.63;;;10.20;99.90;;;;;;5011613;28;20522;-75
2021/10/31 08:10:48;;;;;;;9.90;6.00;;;10.20;99.90;;;;;;5010201;28;20029;-75
2021/10/31 08:13:24;;;;;;;10.82;6.03;;;10.30;99.90;;;;;;5010019;28;20029;-77
2021/10/31 08:15:51;;;;;;;9.20;6.07;;;10.30;99.90;;;;;;5002762;28;20104;-76
2021/10/31 08:18:17;;;;;;;8.95;5.50;;;10.30;99.90;;;;;;5010248;28;20451;-75
2021/10/31 08:20:43;;;;;;;6.38;5.28;;;10.40;99.90;;;;;;5010467;28;20065;-75
2021/10/31 08:23:09;;;;;;;7.32;5.20;;;10.40;99.90;;;;;;5010028;28;20028;-74
2021/10/31 08:25:35;;;;;;;7.43;5.15;;;10.40;99.90;;;;;;5010781;28;20022;-75
2021/10/31 08:28:02;;;;;;;7.18;5.00;;;10.50;99.90;;;;;;5010297;28;20585;-75
2021/10/31 08:30:32;;;;;;;9.05;5.30;;;10.60;99.90;;;;;;5009966;28;20360;-74
2021/10/31 08:33:05;;;;;;;8.60;5.22;;;10.70;99.90;;;;;;5010010;28;20045;-75
2021/10/31 08:35:31;;;;;;;6.70;4.88;;;10.70;99.90;;;;;;5010038;28;20049;-75
2021/10/31 08:37:57;;;;;;;6.15;4.57;;;10.80;99.90;;;;;;5009734;28;20064;-75
2021/10/31 08:40:22;;;;;;;6.82;4.30;;;10.90;99.90;;;;;;5008185;28;20405;-75
2021/10/31 08:42:48;;;;;;;8.27;5.30;;;11.00;99.90;;;;;;5010182;28;20499;-75
2021/10/31 08:45:14;;;;;;;8.80;5.43;;;11.00;99.90;;;;;;5010394;28;20033;-76
2021/10/31 08:47:40;;;;;;;9.23;5.38;;;11.20;99.90;;;;;;5010483;28;20036;-75
2021/10/31 08:50:06;;;;;;;9.00;6.05;;;11.30;99.90;;;;;;5010564;28;20042;-75
2021/10/31 08:52:32;;;;;;;9.07;6.55;;;11.30;99.90;;;;;;5009369;28;20030;-75
2021/10/31 08:54:58;;;;;;;9.85;6.32;;;11.30;99.90;;;;;;5010280;28;20022;-75
2021/10/31 08:57:23;;;;;;;13.07;7.75;;;11.30;99.90;;;;;;5008928;28;20108;-74
2021/10/31 08:59:49;;;;;;;18.90;10.25;;;11.30;99.90;;;;;;5009712;28;20049;-75
2021/10/31 09:02:15;;;;;;;22.90;11.85;;;11.40;99.90;;;;;;5024729;28;20033;-75
2021/10/31 09:04:40;;;;;;;18.38;10.60;;;11.50;99.90;;;;;;5009021;28;20022;-75
2021/10/31 09:07:10;;;;;;;15.10;9.55;;;11.40;99.90;;;;;;5008656;28;20069;-75
2021/10/31 09:09:36;;;;;;;15.27;9.25;;;11.40;99.90;;;;;;5008402;28;20129;-75
2021/10/31 09:12:02;;;;;;;12.23;7.72;;;11.60;99.90;;;;;;5009455;28;20061;-75
2021/10/31 09:14:28;;;;;;;10.90;6.43;;;11.60;99.90;;;;;;5008940;28;20467;-75
2021/10/31 09:16:54;;;;;;;8.40;5.70;;;11.70;99.90;;;;;;5007738;28;20026;-75
2021/10/31 09:19:19;;;;;;;9.18;5.47;;;11.80;99.90;;;;;;5008895;28;20105;-75
2021/10/31 09:21:46;;;;;;;10.07;5.45;;;11.90;99.90;;;;;;5008815;28;20164;-75
2021/10/31 09:24:12;;;;;;;8.40;5.28;;;11.90;99.90;;;;;;5007843;28;20041;-75
2021/10/31 09:26:37;;;;;;;7.45;4.75;;;12.20;99.90;;;;;;5006988;28;20037;-75
2021/10/31 09:29:03;;;;;;;7.18;4.57;;;12.30;99.90;;;;;;5003949;28;20056;-76
2021/10/31 09:31:29;;;;;;;6.45;4.55;;;12.40;99.90;;;;;;5008543;28;20026;-75
2021/10/31 09:33:56;;;;;;;7.95;4.40;;;12.40;99.90;;;;;;5009473;28;20030;-75
2021/10/31 09:36:21;;;;;;;6.15;4.35;;;12.50;99.90;;;;;;5007547;28;20038;-75
2021/10/31 09:38:52;;;;;;;7.88;4.38;;;12.60;99.90;;;;;;5007591;28;20121;-75
2021/10/31 09:41:18;;;;;;;5.60;4.47;;;12.60;99.90;;;;;;5007022;28;20026;-75
2021/10/31 09:43:53;;;;;;;7.45;4.35;;;12.60;99.90;;;;;;5010059;28;20040;-75
2021/10/31 09:46:20;;;;;;;6.90;4.47;;;12.60;99.90;;;;;;5007607;28;20425;-76
2021/10/31 09:48:45;;;;;;;7.22;4.00;;;12.60;99.90;;;;;;5007796;28;20382;-76
2021/10/31 09:51:11;;;;;;;7.10;4.55;;;12.70;99.90;;;;;;5008964;28;20032;-75
2021/10/31 09:53:39;;;;;;;6.63;3.72;;;12.80;99.90;;;;;;5007625;28;20032;-76
2021/10/31 09:56:05;;;;;;;8.07;4.15;;;12.90;99.90;;;;;;5009152;28;20525;-75
2021/10/31 09:58:38;;;;;;;5.78;3.42;;;13.00;99.90;;;;;;5008077;28;20057;-76
2021/10/31 10:01:17;;;;;;;8.60;3.67;;;13.00;99.90;;;;;;5025602;28;20061;-75
2021/10/31 10:04:00;;;;;;;5.47;3.60;;;13.10;99.90;;;;;;5007451;28;20546;-75
2021/10/31 10:06:28;;;;;;;4.45;3.20;;;13.20;99.90;;;;;;5006614;28;20479;-75
2021/10/31 10:09:04;;;;;;;6.00;3.20;;;13.20;99.90;;;;;;5007464;28;20022;-75
2021/10/31 10:11:42;;;;;;;21.48;8.13;;;13.20;99.90;;;;;;5007156;28;20073;-75
2021/10/31 10:14:24;;;;;;;12.07;6.10;;;13.20;99.90;;;;;;5007631;28;20030;-75
2021/10/31 10:16:59;;;;;;;;;;;13.30;99.90;;;;;;5002660;28;20495;-75
2021/10/31 10:19:27;;;;;;;6.85;3.40;;;13.40;99.90;;;;;;5008395;28;19913;-75
2021/10/31 10:22:00;;;;;;;4.63;3.08;;;13.40;99.90;;;;;;5012401;28;20030;-75
2021/10/31 10:24:27;;;;;;;5.55;2.63;;;13.50;99.90;;;;;;5010119;28;20471;-75
2021/10/31 10:26:56;;;;;;;3.25;2.28;;;13.60;99.90;;;;;;5010766;28;20065;-75
2021/10/31 10:29:25;;;;;;;1.75;1.65;;;13.60;99.90;;;;;;5012050;28;20018;-75
2021/10/31 10:32:03;;;;;;;2.65;1.80;;;13.70;99.90;;;;;;5012187;28;20490;-77
2021/10/31 10:34:48;;;;;;;2.47;1.80;;;13.70;99.90;;;;;;5010942;28;20021;-74
2021/10/31 10:37:33;;;;;;;2.25;1.67;;;13.70;99.90;;;;;;5010756;28;20404;-76
2021/10/31 10:39:58;;;;;;;3.15;1.60;;;13.70;99.90;;;;;;5010875;28;20515;-76
2021/10/31 10:42:28;;;;;;;2.47;1.98;;;13.70;99.90;;;;;;5010775;28;20049;-74
2021/10/31 10:45:01;;;;;;;3.67;2.10;;;13.80;99.90;;;;;;5006028;28;20105;-75
2021/10/31 10:47:32;;;;;;;3.97;2.25;;;13.90;99.90;;;;;;5011887;28;20022;-76
2021/10/31 10:49:59;;;;;;;4.93;2.30;;;14.10;99.90;;;;;;5012233;28;20036;-77
2021/10/31 10:52:40;;;;;;;4.15;1.77;;;14.10;99.90;;;;;;5011750;28;20038;-77
2021/10/31 10:55:15;;;;;;;5.68;2.30;;;14.10;99.90;;;;;;5013445;28;20475;-74
2021/10/31 10:58:08;;;;;;;3.35;2.42;;;14.20;99.90;;;;;;5010322;28;20065;-75
2021/10/31 11:00:40;;;;;;;3.42;2.30;;;14.30;99.90;;;;;;5007800;28;20064;-76
2021/10/31 11:03:15;;;;;;;3.28;2.00;;;14.40;99.90;;;;;;5010123;28;20026;-75
2021/10/31 11:05:47;;;;;;;4.30;2.92;;;14.50;99.90;;;;;;5001710;28;20048;-76
2021/10/31 11:08:14;;;;;;;;;;;14.50;99.90;;;;;;5010883;28;20156;-76
2021/10/31 11:11:05;;;;;;;20.20;11.82;;;14.60;99.90;;;;;;5009805;28;19920;-74
2021/10/31 11:13:31;;;;;;;12.60;7.28;;;14.50;99.90;;;;;;5026388;28;20029;-74
2021/10/31 11:15:59;;;;;;;5.38;3.55;;;14.40;99.90;;;;;;5011861;28;20033;-74
2021/10/31 11:18:26;;;;;;;4.75;2.70;;;14.40;99.90;;;;;;5010460;28;20029;-76
2021/10/31 11:20:51;;;;;;;4.70;2.65;;;14.40;99.90;;;;;;5010610;28;20371;-75
2021/10/31 11:23:23;;;;;;;4.22;2.15;;;14.50;99.90;;;;;;5011651;28;20067;-75
2021/10/31 11:25:50;;;;;;;3.47;2.30;;;14.50;99.90;;;;;;5008840;28;20018;-75
2021/10/31 11:28:19;;;;;;;3.05;2.20;;;14.50;99.90;;;;;;5011634;28;20034;-75
2021/10/31 11:30:48;;;;;;;3.35;2.67;;;14.60;99.90;;;;;;5010123;28;20386;-77
2021/10/31 11:33:14;;;;;;;3.22;2.05;;;14.60;99.90;;;;;;5010394;28;20041;-78
2021/10/31 11:35:42;;;;;;;4.55;2.40;;;14.80;99.90;;;;;;5001241;28;20210;-76
2021/10/31 11:38:16;;;;;;;3.22;2.10;;;14.90;99.90;;;;;;5012166;28;20053;-76
2021/10/31 11:40:52;;;;;;;3.17;1.70;;;15.00;99.90;;;;;;5009399;28;20034;-76
2021/10/31 11:43:30;;;;;;;4.30;2.00;;;15.30;99.90;;;;;;5009791;28;20363;-75
2021/10/31 11:45:57;;;;;;;2.20;1.63;;;15.40;99.90;;;;;;5009905;28;20367;-75
2021/10/31 11:48:28;;;;;;;4.20;1.40;;;15.60;99.90;;;;;;5011283;28;20026;-77
2021/10/31 11:51:00;;;;;;;2.63;1.55;;;15.70;99.90;;;;;;5009808;28;20025;-76
2021/10/31 11:53:29;;;;;;;;;;;15.90;99.90;;;;;;5011217;28;20072;-75
2021/10/31 11:56:00;;;;;;;2.10;1.15;;;16.20;99.90;;;;;;5010736;28;20000;-74
2021/10/31 11:58:32;;;;;;;1.98;1.35;;;16.50;99.90;;;;;;5007800;28;20050;-74
2021/10/31 12:01:00;;;;;;;2.45;1.20;;;16.60;99.90;;;;;;5011063;28;20030;-75
2021/10/31 12:03:32;;;;;;;1.35;1.13;;;16.50;99.90;;;;;;5010213;28;20032;-75
2021/10/31 12:06:16;;;;;;;1.60;1.00;;;16.50;99.90;;;;;;5009834;28;20456;-75
2021/10/31 12:09:07;;;;;;;2.70;1.20;;;16.50;99.90;;;;;;5010962;28;20034;-75
2021/10/31 12:11:32;;;;;;;3.30;1.20;;;16.90;99.90;;;;;;5008400;28;20186;-74
2021/10/31 12:14:12;;;;;;;1.40;0.90;;;17.10;99.90;;;;;;5010425;28;20355;-74
2021/10/31 12:16:55;;;;;;;1.23;0.80;;;17.40;99.90;;;;;;5009512;28;20034;-75
2021/10/31 12:19:38;;;;;;;0.80;0.80;;;17.70;99.90;;;;;;5010307;28;20486;-76
2021/10/31 12:22:07;;;;;;;1.77;0.80;;;17.80;99.90;;;;;;5009092;28;20026;-74
2021/10/31 12:24:42;;;;;;;1.60;0.90;;;18.00;99.50;;;;;;5007467;28;20494;-75
2021/10/31 12:27:22;;;;;;;2.75;1.45;;;18.30;97.90;;;;;;5008673;28;20038;-75
2021/10/31 12:29:59;;;;;;;0.77;0.70;;;18.50;97.80;;;;;;4990193;28;20149;-75
2021/10/31 12:32:26;;;;;;;2.20;0.68;;;18.60;97.20;;;;;;4990037;28;20030;-76
2021/10/31 12:34:54;;;;;;;0.77;0.77;;;18.70;95.80;;;;;;5002461;28;20026;-76
2021/10/31 12:37:24;;;;;;;2.00;0.77;;;19.00;96.50;;;;;;5009172;28;20025;-77
2021/10/31 12:39:51;;;;;;;1.17;0.93;;;18.90;96.10;;;;;;5025119;28;20076;-74
2021/10/31 12:42:27;;;;;;;1.30;0.70;;;18.60;96.60;;;;;;5007431;28;20084;-75
2021/10/31 12:45:00;;;;;;;2.30;1.10;;;18.40;97.10;;;;;;5006325;28;20096;-75
2021/10/31 12:47:41;;;;;;;1.13;0.80;;;18.30;97.10;;;;;;5006071;28;20446;-75
2021/10/31 12:50:30;;;;;;;1.45;1.13;;;18.30;97.70;;;;;;5006189;28;20524;-76
2021/10/31 12:53:06;;;;;;;1.23;1.13;;;18.20;98.00;;;;;;5007855;28;20664;-75
2021/10/31 12:55:32;;;;;;;1.98;0.95;;;18.20;98.10;;;;;;5007230;28;20036;-75